createdAt,value
2018-10-12T00:01:41.379Z,16.63
2018-10-12T00:02:41.310Z,16.62
2018-10-12T00:04:34.080Z,16.55
2018-10-12T00:05:34.012Z,16.51
2018-10-12T00:07:26.795Z,16.45
2018-10-12T00:08:26.710Z,16.51
2018-10-12T00:10:19.480Z,16.55
2018-10-12T00:11:19.422Z,16.48
2018-10-12T00:13:12.210Z,16.51
2018-10-12T00:14:12.137Z,16.48
2018-10-12T00:16:04.093Z,16.40
2018-10-12T00:17:04.012Z,16.30
2018-10-12T00:18:56.813Z,16.25
2018-10-12T00:19:56.750Z,16.22
2018-10-12T00:21:49.545Z,16.17
2018-10-12T00:22:49.438Z,16.22
2018-10-12T00:24:42.216Z,16.27
2018-10-12T00:25:42.135Z,16.32
2018-10-12T00:27:34.905Z,16.23
2018-10-12T00:28:34.841Z,16.17
2018-10-12T00:30:27.614Z,16.18
2018-10-12T00:31:27.540Z,16.06
2018-10-12T00:33:20.318Z,15.99
2018-10-12T00:34:20.237Z,15.93
2018-10-12T00:36:13.041Z,15.86
2018-10-12T00:37:12.968Z,15.84
2018-10-12T00:39:05.725Z,15.60
2018-10-12T00:40:05.665Z,15.44
2018-10-12T00:41:58.461Z,15.55
2018-10-12T00:42:58.380Z,15.35
2018-10-12T00:44:51.153Z,15.46
2018-10-12T00:45:51.082Z,15.40
2018-10-12T00:47:42.913Z,15.35
2018-10-12T00:48:42.832Z,15.30
2018-10-12T00:50:35.616Z,15.35
2018-10-12T00:51:35.526Z,15.33
2018-10-12T00:53:28.314Z,15.22
2018-10-12T00:54:28.239Z,15.09
2018-10-12T00:56:20.194Z,14.95
2018-10-12T00:57:20.125Z,14.80
2018-10-12T00:59:12.916Z,14.83
2018-10-12T01:00:12.830Z,14.80
2018-10-12T01:02:05.617Z,14.78
2018-10-12T01:03:05.553Z,14.75
2018-10-12T01:04:58.314Z,14.69
2018-10-12T01:05:58.248Z,14.57
2018-10-12T01:07:51.024Z,14.46
2018-10-12T01:08:50.958Z,14.48
2018-10-12T01:10:43.727Z,14.42
2018-10-12T01:11:43.661Z,14.36
2018-10-12T01:13:36.439Z,14.42
2018-10-12T01:14:36.368Z,14.42
2018-10-12T01:16:29.146Z,14.38
2018-10-12T01:17:29.063Z,14.42
2018-10-12T01:19:21.844Z,14.34
2018-10-12T01:20:21.780Z,14.26
2018-10-12T01:22:14.556Z,14.26
2018-10-12T01:23:14.475Z,14.30
2018-10-12T01:25:07.247Z,14.38
2018-10-12T01:26:07.184Z,14.44
2018-10-12T01:27:59.952Z,14.44
2018-10-12T01:28:59.875Z,14.42
2018-10-12T01:30:52.649Z,14.48
2018-10-12T01:31:52.578Z,14.42
2018-10-12T01:33:45.340Z,14.49
2018-10-12T01:34:45.268Z,14.34
2018-10-12T01:36:38.063Z,14.29
2018-10-12T01:37:37.976Z,14.21
2018-10-12T01:39:30.741Z,14.13
2018-10-12T01:40:30.674Z,14.19
2018-10-12T01:42:23.466Z,14.09
2018-10-12T01:43:23.409Z,13.91
2018-10-12T01:45:16.152Z,13.83
2018-10-12T01:46:16.075Z,14.01
2018-10-12T01:48:08.867Z,14.04
2018-10-12T01:49:08.792Z,13.93
2018-10-12T01:51:01.547Z,13.93
2018-10-12T01:52:01.479Z,13.91
2018-10-12T01:53:54.258Z,14.06
2018-10-12T01:54:54.182Z,14.05
2018-10-12T01:56:46.982Z,14.12
2018-10-12T01:57:46.906Z,14.09
2018-10-12T01:59:39.669Z,14.05
2018-10-12T02:00:39.601Z,14.04
2018-10-12T02:02:32.383Z,14.02
2018-10-12T02:03:32.304Z,13.93
2018-10-12T02:05:25.104Z,14.06
2018-10-12T02:06:25.028Z,14.04
2018-10-12T02:08:17.824Z,13.96
2018-10-12T02:09:17.768Z,14.02
2018-10-12T02:11:10.512Z,13.99
2018-10-12T02:12:10.454Z,14.04
2018-10-12T02:14:03.228Z,14.05
2018-10-12T02:15:03.147Z,14.09
2018-10-12T02:16:55.976Z,14.09
2018-10-12T02:17:55.850Z,14.06
2018-10-12T02:19:48.618Z,14.17
2018-10-12T02:20:48.556Z,14.19
2018-10-12T02:22:42.176Z,14.17
2018-10-12T02:23:42.094Z,14.26
2018-10-12T02:25:34.872Z,14.35
2018-10-12T02:26:34.802Z,14.35
2018-10-12T02:28:27.590Z,14.29
2018-10-12T02:29:27.521Z,14.31
2018-10-12T02:31:20.273Z,14.29
2018-10-12T02:32:20.209Z,14.29
2018-10-12T02:34:12.029Z,14.27
2018-10-12T02:35:11.960Z,14.26
2018-10-12T02:37:04.749Z,14.26
2018-10-12T02:38:04.664Z,14.17
2018-10-12T02:39:57.452Z,14.11
2018-10-12T02:40:57.375Z,14.20
2018-10-12T02:42:50.155Z,14.12
2018-10-12T02:43:50.082Z,14.13
2018-10-12T02:45:42.863Z,14.29
2018-10-12T02:46:42.777Z,14.31
2018-10-12T02:48:35.536Z,14.21
2018-10-12T02:49:35.459Z,14.19
2018-10-12T02:51:28.238Z,14.29
2018-10-12T02:52:28.166Z,14.21
2018-10-12T02:54:20.953Z,14.17
2018-10-12T02:55:20.885Z,14.17
2018-10-12T02:57:13.660Z,14.24
2018-10-12T02:58:13.569Z,14.17
2018-10-12T03:00:06.346Z,14.30
2018-10-12T03:01:06.277Z,14.30
2018-10-12T03:02:59.056Z,14.41
2018-10-12T03:03:58.976Z,14.39
2018-10-12T03:05:51.741Z,14.48
2018-10-12T03:06:51.705Z,14.41
2018-10-12T03:08:44.534Z,14.42
2018-10-12T03:09:44.393Z,14.44
2018-10-12T03:11:37.139Z,14.35
2018-10-12T03:12:37.073Z,14.26
2018-10-12T03:14:29.845Z,14.23
2018-10-12T03:15:29.764Z,14.24
2018-10-12T03:17:22.523Z,14.26
2018-10-12T03:18:22.451Z,14.17
2018-10-12T03:20:15.290Z,14.06
2018-10-12T03:21:15.151Z,14.06
2018-10-12T03:23:07.945Z,14.02
2018-10-12T03:24:07.855Z,14.16
2018-10-12T03:26:00.624Z,14.08
2018-10-12T03:27:00.554Z,14.05
2018-10-12T03:28:53.392Z,14.08
2018-10-12T03:29:53.310Z,14.12
2018-10-12T03:31:46.082Z,14.01
2018-10-12T03:32:45.995Z,14.04
2018-10-12T03:34:37.769Z,13.90
2018-10-12T03:35:37.688Z,13.84
2018-10-12T03:37:29.642Z,13.69
2018-10-12T03:38:29.559Z,13.66
2018-10-12T03:40:22.358Z,13.68
2018-10-12T03:41:22.293Z,13.50
2018-10-12T03:43:15.056Z,13.50
2018-10-12T03:44:14.980Z,13.41
2018-10-12T03:46:07.756Z,13.32
2018-10-12T03:47:07.673Z,13.32
2018-10-12T03:49:00.452Z,13.16
2018-10-12T03:50:00.377Z,13.12
2018-10-12T03:51:52.364Z,12.94
2018-10-12T03:52:52.237Z,12.88
2018-10-12T03:54:45.277Z,12.87
2018-10-12T03:55:45.200Z,12.81
2018-10-12T03:57:38.000Z,12.76
2018-10-12T03:58:37.885Z,12.76
2018-10-12T04:00:30.678Z,12.87
2018-10-12T04:01:30.599Z,12.79
2018-10-12T04:03:23.366Z,12.89
2018-10-12T04:04:23.300Z,12.85
2018-10-12T04:06:16.069Z,12.95
2018-10-12T04:07:16.000Z,12.98
2018-10-12T04:09:08.788Z,12.91
2018-10-12T04:10:08.686Z,12.91
2018-10-12T04:12:01.455Z,12.87
2018-10-12T04:13:01.394Z,12.91
2018-10-12T04:14:54.179Z,12.88
2018-10-12T04:15:54.112Z,12.77
2018-10-12T04:17:46.864Z,12.63
2018-10-12T04:18:46.790Z,12.55
2018-10-12T04:20:39.575Z,12.43
2018-10-12T04:21:39.486Z,12.49
2018-10-12T04:23:32.269Z,12.52
2018-10-12T04:24:32.198Z,12.37
2018-10-12T04:26:24.963Z,12.51
2018-10-12T04:27:24.886Z,12.58
2018-10-12T04:29:17.712Z,12.54
2018-10-12T04:30:17.599Z,12.49
2018-10-12T04:32:10.383Z,12.46
2018-10-12T04:33:10.304Z,12.34
2018-10-12T04:35:03.089Z,12.31
2018-10-12T04:36:03.012Z,12.37
2018-10-12T04:37:54.950Z,12.31
2018-10-12T04:38:54.857Z,12.41
2018-10-12T04:40:47.651Z,12.48
2018-10-12T04:41:47.555Z,12.48
2018-10-12T04:43:40.314Z,12.56
2018-10-12T04:44:40.255Z,12.66
2018-10-12T04:46:33.042Z,12.59
2018-10-12T04:47:32.962Z,12.58
2018-10-12T04:49:25.751Z,12.43
2018-10-12T04:50:25.673Z,12.41
2018-10-12T04:52:18.456Z,12.38
2018-10-12T04:53:18.374Z,12.41
2018-10-12T04:55:11.244Z,12.33
2018-10-12T04:56:11.080Z,12.26
2018-10-12T04:58:04.120Z,12.25
2018-10-12T04:59:03.804Z,12.23
2018-10-12T05:00:56.649Z,12.15
2018-10-12T05:01:56.498Z,12.26
2018-10-12T05:03:49.249Z,12.08
2018-10-12T05:04:49.184Z,12.07
2018-10-12T05:06:41.967Z,12.11
2018-10-12T05:07:41.960Z,12.00
2018-10-12T05:09:34.747Z,12.07
2018-10-12T05:10:34.667Z,11.98
2018-10-12T05:12:27.575Z,12.08
2018-10-12T05:13:27.509Z,12.08
2018-10-12T05:15:20.281Z,12.11
2018-10-12T05:16:20.208Z,12.26
2018-10-12T05:18:13.130Z,12.23
2018-10-12T05:19:12.913Z,12.22
2018-10-12T05:21:05.712Z,12.26
2018-10-12T05:22:05.686Z,12.23
2018-10-12T05:23:58.390Z,12.19
2018-10-12T05:24:58.329Z,12.08
2018-10-12T05:26:51.100Z,12.11
2018-10-12T05:27:51.028Z,12.00
2018-10-12T05:29:43.801Z,12.08
2018-10-12T05:30:43.744Z,12.00
2018-10-12T05:32:36.490Z,12.01
2018-10-12T05:33:36.425Z,12.03
2018-10-12T05:35:29.198Z,12.01
2018-10-12T05:36:29.119Z,12.04
2018-10-12T05:38:21.885Z,12.15
2018-10-12T05:39:21.816Z,12.12
2018-10-12T05:41:14.792Z,12.15
2018-10-12T05:42:14.714Z,12.18
2018-10-12T05:44:07.497Z,12.19
2018-10-12T05:45:07.434Z,12.23
2018-10-12T05:47:00.243Z,12.23
2018-10-12T05:48:00.172Z,12.19
2018-10-12T05:49:52.943Z,12.29
2018-10-12T05:50:52.868Z,12.38
2018-10-12T05:52:45.638Z,12.37
2018-10-12T05:53:45.570Z,12.52
2018-10-12T05:55:38.370Z,12.49
2018-10-12T05:56:38.263Z,12.52
2018-10-12T05:58:31.026Z,12.71
2018-10-12T05:59:30.963Z,12.66
2018-10-12T06:01:23.855Z,12.73
2018-10-12T06:02:23.848Z,12.73
2018-10-12T06:04:16.533Z,12.70
2018-10-12T06:05:16.401Z,12.76
2018-10-12T06:07:09.902Z,12.71
2018-10-12T06:08:09.374Z,12.76
2018-10-12T06:10:01.210Z,12.91
2018-10-12T06:11:01.082Z,12.99
2018-10-12T06:12:53.845Z,13.01
2018-10-12T06:13:53.768Z,13.01
2018-10-12T06:15:45.816Z,13.24
2018-10-12T06:16:45.602Z,13.27
2018-10-12T06:18:38.399Z,13.36
2018-10-12T06:19:38.296Z,13.41
2018-10-12T06:21:31.315Z,13.51
2018-10-12T06:22:31.012Z,13.55
2018-10-12T06:24:23.777Z,13.55
2018-10-12T06:25:23.711Z,13.50
2018-10-12T06:27:16.549Z,13.46
2018-10-12T06:28:16.430Z,13.50
2018-10-12T06:30:09.191Z,13.80
2018-10-12T06:31:09.120Z,13.76
2018-10-12T06:33:01.981Z,13.93
2018-10-12T06:34:01.844Z,13.98
2018-10-12T06:35:54.624Z,14.23
2018-10-12T06:36:54.546Z,14.09
2018-10-12T06:38:47.313Z,14.13
2018-10-12T06:39:47.251Z,14.23
2018-10-12T06:41:40.242Z,14.38
2018-10-12T06:42:39.946Z,14.42
2018-10-12T06:44:32.716Z,14.54
2018-10-12T06:45:32.648Z,14.60
2018-10-12T06:47:25.497Z,14.69
2018-10-12T06:48:25.417Z,14.86
2018-10-12T06:50:18.301Z,15.18
2018-10-12T06:51:18.226Z,15.37
2018-10-12T06:53:11.000Z,15.67
2018-10-12T06:54:10.914Z,15.67
2018-10-12T06:56:03.721Z,15.58
2018-10-12T06:57:03.646Z,15.59
2018-10-12T06:58:56.416Z,15.49
2018-10-12T06:59:56.422Z,15.44
2018-10-12T07:01:49.316Z,15.52
2018-10-12T07:02:49.265Z,15.46
2018-10-12T07:04:41.975Z,15.46
2018-10-12T07:05:41.946Z,15.48
2018-10-12T07:07:34.690Z,15.38
2018-10-12T07:08:34.629Z,15.41
2018-10-12T07:10:27.376Z,15.52
2018-10-12T07:11:27.343Z,15.51
2018-10-12T07:13:20.104Z,15.59
2018-10-12T07:14:20.029Z,15.56
2018-10-12T07:16:12.820Z,15.74
2018-10-12T07:17:12.808Z,15.78
2018-10-12T07:19:05.521Z,15.84
2018-10-12T07:20:05.452Z,15.86
2018-10-12T07:21:58.291Z,16.29
2018-10-12T07:22:58.197Z,16.40
2018-10-12T07:24:50.955Z,16.55
2018-10-12T07:25:50.949Z,16.65
2018-10-12T07:27:43.670Z,17.12
2018-10-12T07:28:43.593Z,17.35
2018-10-12T07:30:36.355Z,17.80
2018-10-12T07:31:36.367Z,18.19
2018-10-12T07:33:29.068Z,18.21
2018-10-12T07:34:28.987Z,18.31
2018-10-12T07:36:22.206Z,18.35
2018-10-12T07:37:21.826Z,18.66
2018-10-12T07:39:14.850Z,18.78
2018-10-12T07:40:14.485Z,18.60
2018-10-12T07:42:07.259Z,19.31
2018-10-12T07:43:07.194Z,20.10
2018-10-12T07:44:59.969Z,20.93
2018-10-12T07:45:59.902Z,21.27
2018-10-12T07:47:52.842Z,21.99
2018-10-12T07:48:52.752Z,22.54
2018-10-12T07:50:45.540Z,22.94
2018-10-12T07:51:45.455Z,22.99
2018-10-12T07:53:38.243Z,22.33
2018-10-12T07:54:38.155Z,22.02
2018-10-12T07:56:30.965Z,21.51
2018-10-12T07:57:30.876Z,21.59
2018-10-12T07:59:23.655Z,22.11
2018-10-12T08:00:23.637Z,22.54
2018-10-12T08:02:16.820Z,23.38
2018-10-12T08:03:16.335Z,23.00
2018-10-12T08:05:09.218Z,22.20
2018-10-12T08:06:09.089Z,21.98
2018-10-12T08:08:26.336Z,21.33
2018-10-12T08:09:26.334Z,21.43
2018-10-12T08:11:19.076Z,21.85
2018-10-12T08:12:19.002Z,22.42
2018-10-12T08:14:11.804Z,23.64
2018-10-12T08:15:11.720Z,24.15
2018-10-12T08:17:04.497Z,24.79
2018-10-12T08:18:04.432Z,25.16
2018-10-12T08:19:57.216Z,25.86
2018-10-12T08:20:57.155Z,26.17
2018-10-12T08:22:49.949Z,26.41
2018-10-12T08:23:49.877Z,26.42
2018-10-12T08:25:42.663Z,26.84
2018-10-12T08:26:42.602Z,27.06
2018-10-12T08:28:35.392Z,27.16
2018-10-12T08:29:35.314Z,27.05
2018-10-12T08:31:28.140Z,26.86
2018-10-12T08:32:28.036Z,26.91
2018-10-12T08:34:20.854Z,26.81
2018-10-12T08:35:20.768Z,26.20
2018-10-12T08:37:13.605Z,26.13
2018-10-12T08:38:13.531Z,25.85
2018-10-12T08:40:06.343Z,26.04
2018-10-12T08:41:06.272Z,26.31
2018-10-12T08:42:59.062Z,26.31
2018-10-12T08:43:59.033Z,26.34
2018-10-12T08:45:51.769Z,26.17
2018-10-12T08:46:51.706Z,26.13
2018-10-12T08:48:44.511Z,26.32
2018-10-12T08:49:44.431Z,26.23
2018-10-12T08:51:37.234Z,26.12
2018-10-12T08:52:37.165Z,25.98
2018-10-12T08:54:29.961Z,25.89
2018-10-12T08:55:29.935Z,26.01
2018-10-12T08:57:22.691Z,26.28
2018-10-12T08:58:22.622Z,26.42
2018-10-12T09:00:15.558Z,26.69
2018-10-12T09:01:15.501Z,26.47
2018-10-12T09:03:08.302Z,26.13
2018-10-12T09:04:08.219Z,26.19
2018-10-12T09:06:01.007Z,26.29
2018-10-12T09:07:00.948Z,26.11
2018-10-12T09:08:53.782Z,26.32
2018-10-12T09:09:53.771Z,25.91
2018-10-12T09:11:46.471Z,25.78
2018-10-12T09:12:46.403Z,25.71
2018-10-12T09:14:39.207Z,25.72
2018-10-12T09:15:39.133Z,25.75
2018-10-12T09:17:31.970Z,25.24
2018-10-12T09:18:31.861Z,25.49
2018-10-12T09:20:24.776Z,25.63
2018-10-12T09:21:24.601Z,25.59
2018-10-12T09:23:17.397Z,25.79
2018-10-12T09:24:17.393Z,25.98
2018-10-12T09:26:10.180Z,26.16
2018-10-12T09:27:10.121Z,26.06
2018-10-12T09:29:02.858Z,25.82
2018-10-12T09:30:02.795Z,25.79
2018-10-12T09:31:55.588Z,25.74
2018-10-12T09:32:55.503Z,25.85
2018-10-12T09:34:48.318Z,25.82
2018-10-12T09:35:48.254Z,26.01
2018-10-12T09:37:41.038Z,25.82
2018-10-12T09:38:40.970Z,25.97
2018-10-12T09:40:33.838Z,26.19
2018-10-12T09:41:33.693Z,26.13
2018-10-12T09:43:26.496Z,25.94
2018-10-12T09:44:26.424Z,25.97
2018-10-12T09:46:19.229Z,25.97
2018-10-12T09:47:19.173Z,25.97
2018-10-12T09:49:11.968Z,26.20
2018-10-12T09:50:11.958Z,26.32
2018-10-12T09:52:04.679Z,26.44
2018-10-12T09:53:04.617Z,26.49
2018-10-12T09:54:58.282Z,26.41
2018-10-12T09:55:58.203Z,26.31
2018-10-12T09:57:50.990Z,26.23
2018-10-12T09:58:50.935Z,26.23
2018-10-12T10:00:43.700Z,26.19
2018-10-12T10:01:43.698Z,26.16
2018-10-12T10:03:36.453Z,25.49
2018-10-12T10:04:36.380Z,25.45
2018-10-12T10:06:29.200Z,25.67
2018-10-12T10:07:29.107Z,25.66
2018-10-12T10:09:22.004Z,25.71
2018-10-12T10:10:21.827Z,25.75
2018-10-12T10:12:14.619Z,25.44
2018-10-12T10:13:14.576Z,25.41
2018-10-12T10:15:07.352Z,25.24
2018-10-12T10:16:07.291Z,25.29
2018-10-12T10:18:00.118Z,25.29
2018-10-12T10:19:00.051Z,25.17
2018-10-12T10:20:52.841Z,25.27
2018-10-12T10:21:52.778Z,25.09
2018-10-12T10:23:45.602Z,24.99
2018-10-12T10:24:45.537Z,24.99
2018-10-12T10:26:38.335Z,24.99
2018-10-12T10:27:38.312Z,25.01
2018-10-12T10:29:31.123Z,25.11
2018-10-12T10:30:31.030Z,25.09
2018-10-12T10:32:23.868Z,25.01
2018-10-12T10:33:23.762Z,25.12
2018-10-12T10:35:16.588Z,24.99
2018-10-12T10:36:16.470Z,24.86
2018-10-12T10:38:09.390Z,24.79
2018-10-12T10:39:09.356Z,24.66
2018-10-12T10:41:02.093Z,24.93
2018-10-12T10:42:02.053Z,24.86
2018-10-12T10:43:54.851Z,24.82
2018-10-12T10:44:54.778Z,24.60
2018-10-12T10:46:47.570Z,24.52
2018-10-12T10:47:47.510Z,24.66
2018-10-12T10:49:40.383Z,24.98
2018-10-12T10:50:40.255Z,25.12
2018-10-12T10:52:33.039Z,25.22
2018-10-12T10:53:33.002Z,25.39
2018-10-12T10:55:25.781Z,25.39
2018-10-12T10:56:25.708Z,25.36
2018-10-12T10:58:18.488Z,25.23
2018-10-12T10:59:18.425Z,25.22
2018-10-12T11:01:11.215Z,25.09
2018-10-12T11:02:11.158Z,24.79
2018-10-12T11:04:03.941Z,24.93
2018-10-12T11:05:03.868Z,24.94
2018-10-12T11:06:56.662Z,24.82
2018-10-12T11:07:56.602Z,24.71
2018-10-12T11:09:49.422Z,24.75
2018-10-12T11:10:49.331Z,24.80
2018-10-12T11:12:42.214Z,24.36
2018-10-12T11:13:42.064Z,24.18
2018-10-12T11:15:34.865Z,24.18
2018-10-12T11:16:34.801Z,24.16
2018-10-12T11:18:27.613Z,24.05
2018-10-12T11:19:27.552Z,24.02
2018-10-12T11:21:20.281Z,23.89
2018-10-12T11:22:20.225Z,23.75
2018-10-12T11:24:13.044Z,23.63
2018-10-12T11:25:12.946Z,23.64
2018-10-12T11:27:05.727Z,23.77
2018-10-12T11:28:05.668Z,23.71
2018-10-12T11:29:58.471Z,23.79
2018-10-12T11:30:58.397Z,23.89
2018-10-12T11:32:51.313Z,23.97
2018-10-12T11:33:51.110Z,24.02
2018-10-12T11:35:43.907Z,24.02
2018-10-12T11:36:43.844Z,24.15
2018-10-12T11:38:36.620Z,23.99
2018-10-12T11:39:36.547Z,23.94
2018-10-12T11:41:29.314Z,24.00
2018-10-12T11:42:29.254Z,24.12
2018-10-12T11:44:22.058Z,24.05
2018-10-12T11:45:22.029Z,24.05
2018-10-12T11:47:14.746Z,24.08
2018-10-12T11:48:14.687Z,24.09
2018-10-12T11:50:07.487Z,24.16
2018-10-12T11:51:07.396Z,24.14
2018-10-12T11:53:00.176Z,24.15
2018-10-12T11:54:00.117Z,24.14
2018-10-12T11:55:52.952Z,24.18
2018-10-12T11:56:52.856Z,24.23
2018-10-12T11:58:45.658Z,24.18
2018-10-12T11:59:45.574Z,24.16
2018-10-12T12:01:38.380Z,24.18
2018-10-12T12:02:38.316Z,24.15
2018-10-12T12:04:31.104Z,24.00
2018-10-12T12:05:31.019Z,24.12
2018-10-12T12:07:23.950Z,24.23
2018-10-12T12:08:23.739Z,24.02
2018-10-12T12:10:16.536Z,24.00
2018-10-12T12:11:16.458Z,24.06
2018-10-12T12:13:09.257Z,24.08
2018-10-12T12:14:09.178Z,24.11
2018-10-12T12:16:01.969Z,24.16
2018-10-12T12:17:01.886Z,24.19
2018-10-12T12:18:54.663Z,24.19
2018-10-12T12:19:54.595Z,24.19
2018-10-12T12:21:47.384Z,24.27
2018-10-12T12:22:47.312Z,24.26
2018-10-12T12:24:40.090Z,24.29
2018-10-12T12:25:40.019Z,24.29
2018-10-12T12:27:32.919Z,24.37
2018-10-12T12:28:32.779Z,24.37
2018-10-12T12:30:25.533Z,24.48
2018-10-12T12:31:25.464Z,24.52
2018-10-12T12:33:18.242Z,24.41
2018-10-12T12:34:18.172Z,24.37
2018-10-12T12:36:11.127Z,24.36
2018-10-12T12:37:10.895Z,24.42
2018-10-12T12:39:03.670Z,24.36
2018-10-12T12:40:03.618Z,24.39
2018-10-12T12:41:56.418Z,24.48
2018-10-12T12:42:56.347Z,24.67
2018-10-12T12:44:49.141Z,24.60
2018-10-12T12:45:49.055Z,24.56
2018-10-12T12:47:41.928Z,24.68
2018-10-12T12:48:42.077Z,24.60
2018-10-12T12:50:34.559Z,24.55
2018-10-12T12:51:34.486Z,24.63
2018-10-12T12:53:27.263Z,24.44
2018-10-12T12:54:27.197Z,24.36
2018-10-12T12:56:20.002Z,24.34
2018-10-12T12:57:19.940Z,24.34
2018-10-12T12:59:12.712Z,24.33
2018-10-12T13:00:12.666Z,24.44
2018-10-12T13:02:05.439Z,24.45
2018-10-12T13:03:05.376Z,24.55
2018-10-12T13:04:58.175Z,24.51
2018-10-12T13:05:58.093Z,24.60
2018-10-12T13:07:50.874Z,24.67
2018-10-12T13:08:50.815Z,24.75
2018-10-12T13:10:43.609Z,24.80
2018-10-12T13:11:43.554Z,24.90
2018-10-12T13:13:36.403Z,24.86
2018-10-12T13:14:36.263Z,24.92
2018-10-12T13:16:29.067Z,25.08
2018-10-12T13:17:28.987Z,24.99
2018-10-12T13:19:21.769Z,25.04
2018-10-12T13:20:21.707Z,25.12
2018-10-12T13:22:14.492Z,25.04
2018-10-12T13:23:14.419Z,24.98
2018-10-12T13:25:07.217Z,24.98
2018-10-12T13:26:07.302Z,24.98
2018-10-12T13:27:59.920Z,24.99
2018-10-12T13:28:59.857Z,25.08
2018-10-12T13:30:52.640Z,25.14
2018-10-12T13:31:52.583Z,25.14
2018-10-12T13:33:45.351Z,25.19
2018-10-12T13:34:45.296Z,25.11
2018-10-12T13:36:38.082Z,25.11
2018-10-12T13:37:38.092Z,25.23
2018-10-12T13:39:30.768Z,25.24
2018-10-12T13:40:30.712Z,25.27
2018-10-12T13:42:23.497Z,25.26
2018-10-12T13:43:23.429Z,25.23
2018-10-12T13:45:16.213Z,25.22
2018-10-12T13:46:16.140Z,25.27
2018-10-12T13:48:08.915Z,25.23
2018-10-12T13:49:08.867Z,25.29
2018-10-12T13:51:01.649Z,25.26
2018-10-12T13:52:01.570Z,25.16
2018-10-12T13:53:54.356Z,24.97
2018-10-12T13:54:54.295Z,25.02
2018-10-12T13:56:47.082Z,25.04
2018-10-12T13:57:47.012Z,25.19
2018-10-12T13:59:39.801Z,25.20
2018-10-12T14:00:39.740Z,25.19
2018-10-12T14:02:31.575Z,25.09
2018-10-12T14:03:31.443Z,25.12
2018-10-12T14:05:23.237Z,25.09
2018-10-12T14:06:23.155Z,25.07
2018-10-12T14:08:15.006Z,24.99
2018-10-12T14:09:14.919Z,25.07
2018-10-12T14:11:07.709Z,25.14
2018-10-12T14:12:07.668Z,25.12
2018-10-12T14:14:00.400Z,25.08
2018-10-12T14:15:00.339Z,25.07
2018-10-12T14:16:53.156Z,24.99
2018-10-12T14:17:53.099Z,24.99
2018-10-12T14:19:45.887Z,24.94
2018-10-12T14:20:45.786Z,24.93
2018-10-12T14:22:38.583Z,25.01
2018-10-12T14:23:38.496Z,25.01
2018-10-12T14:25:31.284Z,25.11
2018-10-12T14:26:31.218Z,25.02
2018-10-12T14:28:23.989Z,25.01
2018-10-12T14:29:23.917Z,25.01
2018-10-12T14:31:16.696Z,25.04
2018-10-12T14:32:16.630Z,25.02
2018-10-12T14:34:09.417Z,24.92
2018-10-12T14:35:09.346Z,24.94
2018-10-12T14:37:02.166Z,24.94
2018-10-12T14:38:02.116Z,24.84
2018-10-12T14:39:54.868Z,24.79
2018-10-12T14:40:54.801Z,24.75
2018-10-12T14:42:47.582Z,24.79
2018-10-12T14:43:47.556Z,24.80
2018-10-12T14:45:40.300Z,24.68
2018-10-12T14:46:40.233Z,24.75
2018-10-12T14:48:33.016Z,24.64
2018-10-12T14:49:32.940Z,24.71
2018-10-12T14:51:25.783Z,24.71
2018-10-12T14:52:25.665Z,24.77
2018-10-12T14:54:18.505Z,24.60
2018-10-12T14:55:18.418Z,24.56
2018-10-12T14:57:11.203Z,24.60
2018-10-12T14:58:11.136Z,24.67
2018-10-12T15:00:03.960Z,24.56
2018-10-12T15:01:03.849Z,24.63
2018-10-12T15:02:55.651Z,24.52
2018-10-12T15:03:55.572Z,24.48
2018-10-12T15:05:48.366Z,24.46
2018-10-12T15:06:48.289Z,24.34
2018-10-12T15:08:41.064Z,24.56
2018-10-12T15:09:41.000Z,24.51
2018-10-12T15:11:33.836Z,24.53
2018-10-12T15:12:33.718Z,24.39
2018-10-12T15:14:25.636Z,24.26
2018-10-12T15:15:25.574Z,24.31
2018-10-12T15:17:18.349Z,24.24
2018-10-12T15:18:18.279Z,24.09
2018-10-12T15:20:11.061Z,24.04
2018-10-12T15:21:11.149Z,24.08
2018-10-12T15:23:03.795Z,23.99
2018-10-12T15:24:03.719Z,24.08
2018-10-12T15:25:56.514Z,24.08
2018-10-12T15:26:56.434Z,24.06
2018-10-12T15:28:49.202Z,24.08
2018-10-12T15:29:49.154Z,24.02
2018-10-12T15:31:41.927Z,24.00
2018-10-12T15:32:41.859Z,23.87
2018-10-12T15:34:34.625Z,23.78
2018-10-12T15:35:34.576Z,23.74
2018-10-12T15:37:27.355Z,23.78
2018-10-12T15:38:27.337Z,23.62
2018-10-12T15:40:20.056Z,23.67
2018-10-12T15:41:19.998Z,23.64
2018-10-12T15:43:11.913Z,23.39
2018-10-12T15:44:11.777Z,23.35
2018-10-12T15:46:04.564Z,23.22
2018-10-12T15:47:04.510Z,23.21
2018-10-12T15:48:56.444Z,23.06
2018-10-12T15:49:56.399Z,23.04
2018-10-12T15:51:49.148Z,22.94
2018-10-12T15:52:49.067Z,22.94
2018-10-12T15:54:41.863Z,22.82
2018-10-12T15:55:41.802Z,22.79
2018-10-12T15:57:34.577Z,22.64
2018-10-12T15:58:34.516Z,22.52
2018-10-12T16:00:27.290Z,22.48
2018-10-12T16:01:27.221Z,22.48
2018-10-12T16:03:20.002Z,22.23
2018-10-12T16:04:19.954Z,22.21
2018-10-12T16:06:12.736Z,21.99
2018-10-12T16:07:12.630Z,21.91
2018-10-12T16:09:04.461Z,21.82
2018-10-12T16:10:04.412Z,21.75
2018-10-12T16:11:57.168Z,21.73
2018-10-12T16:12:57.093Z,21.66
2018-10-12T16:14:49.945Z,21.46
2018-10-12T16:15:49.821Z,21.34
2018-10-12T16:17:42.605Z,21.31
2018-10-12T16:18:42.531Z,21.16
2018-10-12T16:20:35.303Z,21.06
2018-10-12T16:21:35.245Z,20.97
2018-10-12T16:23:27.084Z,20.85
2018-10-12T16:24:27.027Z,20.88
2018-10-12T16:26:19.793Z,20.71
2018-10-12T16:27:19.728Z,20.73
2018-10-12T16:29:12.647Z,20.63
2018-10-12T16:30:12.442Z,20.57
2018-10-12T16:32:04.336Z,20.41
2018-10-12T16:33:04.265Z,20.48
2018-10-12T16:34:57.035Z,20.31
2018-10-12T16:35:57.058Z,20.34
2018-10-12T16:37:49.755Z,20.31
2018-10-12T16:38:49.684Z,20.26
2018-10-12T16:40:41.530Z,20.33
2018-10-12T16:41:41.469Z,20.34
2018-10-12T16:43:34.247Z,20.37
2018-10-12T16:44:34.192Z,20.33
2018-10-12T16:46:26.950Z,20.40
2018-10-12T16:47:26.882Z,20.33
2018-10-12T16:49:18.705Z,20.37
2018-10-12T16:50:18.581Z,20.19
2018-10-12T16:52:10.586Z,20.22
2018-10-12T16:53:10.518Z,20.08
2018-10-12T16:55:03.300Z,20.07
2018-10-12T16:56:03.233Z,19.95
2018-10-12T16:57:56.048Z,19.90
2018-10-12T16:58:55.960Z,19.95
2018-10-12T17:00:48.715Z,19.97
2018-10-12T17:01:48.650Z,20.00
2018-10-12T17:03:42.276Z,19.85
2018-10-12T17:04:42.258Z,19.80
2018-10-12T17:06:34.038Z,19.67
2018-10-12T17:07:33.975Z,19.67
2018-10-12T17:09:26.770Z,19.49
2018-10-12T17:10:26.687Z,19.55
2018-10-12T17:12:19.461Z,19.55
2018-10-12T17:13:19.387Z,19.55
2018-10-12T17:15:12.185Z,19.72
2018-10-12T17:16:12.120Z,19.75
2018-10-12T17:18:04.897Z,19.61
2018-10-12T17:19:04.832Z,19.58
2018-10-12T17:20:57.601Z,19.43
2018-10-12T17:21:57.538Z,19.31
2018-10-12T17:23:49.441Z,19.28
2018-10-12T17:24:49.342Z,19.07
2018-10-12T17:26:42.114Z,18.91
2018-10-12T17:27:42.052Z,18.83
2018-10-12T17:29:33.997Z,18.82
2018-10-12T17:30:33.986Z,18.75
2018-10-12T17:32:26.708Z,18.60
2018-10-12T17:33:26.667Z,18.56
2018-10-12T17:35:18.553Z,18.34
2018-10-12T17:36:18.491Z,18.36
2018-10-12T17:38:11.272Z,18.31
2018-10-12T17:39:11.208Z,18.17
2018-10-12T17:41:03.967Z,18.07
2018-10-12T17:42:03.906Z,18.02
2018-10-12T17:43:55.893Z,17.99
2018-10-12T17:44:55.820Z,17.94
2018-10-12T17:46:47.780Z,17.79
2018-10-12T17:47:47.714Z,17.77
2018-10-12T17:49:40.517Z,17.79
2018-10-12T17:50:40.424Z,17.71
2018-10-12T17:52:33.264Z,17.63
2018-10-12T17:53:33.132Z,17.58
2018-10-12T17:55:25.934Z,17.51
2018-10-12T17:56:25.856Z,17.54
2018-10-12T17:58:18.640Z,17.51
2018-10-12T17:59:18.573Z,17.53
2018-10-12T18:01:11.394Z,17.43
2018-10-12T18:02:11.336Z,17.39
2018-10-12T18:04:04.111Z,17.32
2018-10-12T18:05:04.038Z,17.25
2018-10-12T18:06:56.829Z,17.17
2018-10-12T18:07:56.762Z,17.21
2018-10-12T18:09:49.552Z,17.24
2018-10-12T18:10:49.462Z,17.25
2018-10-12T18:12:42.262Z,17.03
2018-10-12T18:13:42.173Z,17.07
2018-10-12T18:15:34.954Z,16.99
2018-10-12T18:16:34.882Z,16.99
2018-10-12T18:18:27.685Z,17.03
2018-10-12T18:19:27.584Z,17.00
2018-10-12T18:21:20.362Z,17.02
2018-10-12T18:22:20.297Z,16.96
2018-10-12T18:24:12.128Z,16.90
2018-10-12T18:25:12.060Z,16.88
2018-10-12T18:27:04.830Z,16.82
2018-10-12T18:28:04.773Z,16.78
2018-10-12T18:29:57.554Z,16.82
2018-10-12T18:30:57.497Z,16.77
2018-10-12T18:32:50.240Z,16.75